Time;durP1;ratioP1;P1;durP2;ratioP2;P2;SDS_P1;SDS_P2;PMS_P1;PMS_P2;Temp;Humidity;BMP_temperature;BMP_pressure;BME280_temperature;BME280_humidity;BME280_pressure;Samples;Min_cycle;Max_cycle;Signal;HPM_P1;HPM_P2
2022/01/29 00:02:02;;;;;;;21.92;6.20;;;;;;;8.45;100.00;102773.28;5099294;28;20031;-69
2022/01/29 00:04:28;;;;;;;20.30;6.97;;;;;;;8.60;100.00;102783.06;5100991;28;20027;-69
2022/01/29 00:06:54;;;;;;;20.45;5.93;;;;;;;8.41;100.00;102774.75;5098632;28;20577;-69
2022/01/29 00:09:19;;;;;;;16.67;5.90;;;;;;;8.81;100.00;102782.69;5068776;28;20028;-68
2022/01/29 00:11:45;;;;;;;20.88;5.80;;;;;;;8.53;100.00;102774.09;5092325;28;20027;-70
2022/01/29 00:14:11;;;;;;;19.80;5.88;;;;;;;8.61;100.00;102765.63;5102173;28;20509;-70
2022/01/29 00:16:43;;;;;;;26.33;6.57;;;;;;;8.61;100.00;102754.69;5096943;28;20516;-71
2022/01/29 00:19:08;;;;;;;23.70;5.70;;;;;;;8.80;100.00;102747.34;5068007;28;20091;-69
2022/01/29 00:21:35;;;;;;;21.30;6.22;;;;;;;8.68;100.00;102754.63;5085336;28;20349;-69
2022/01/29 00:24:00;;;;;;;27.23;6.55;;;;;;;8.55;100.00;102750.09;5067493;28;20146;-69
2022/01/29 00:26:35;;;;;;;26.20;6.72;;;;;;;8.46;100.00;102746.75;5068156;28;20035;-68
2022/01/29 00:29:07;;;;;;;27.90;7.10;;;;;;;8.53;100.00;102749.47;5079837;28;20407;-69
2022/01/29 00:31:33;;;;;;;20.63;6.40;;;;;;;8.49;100.00;102751.78;5083289;28;20063;-68
2022/01/29 00:33:58;;;;;;;27.40;7.75;;;;;;;8.43;100.00;102749.97;5081153;28;20620;-69
2022/01/29 00:36:24;;;;;;;19.10;6.90;;;;;;;8.20;100.00;102743.13;5098002;28;20051;-69
2022/01/29 00:38:49;;;;;;;23.02;7.25;;;;;;;8.36;100.00;102751.84;5095356;28;20023;-70
2022/01/29 00:41:14;;;;;;;21.35;7.25;;;;;;;8.23;100.00;102755.50;5104078;28;20481;-69
2022/01/29 00:43:40;;;;;;;20.45;7.72;;;;;;;8.34;100.00;102752.06;5088392;28;20032;-69
2022/01/29 00:46:05;;;;;;;20.30;6.53;;;;;;;7.99;100.00;102752.50;5084948;28;20055;-69
2022/01/29 00:48:30;;;;;;;28.83;9.10;;;;;;;8.22;100.00;102745.66;5079761;28;20551;-68
2022/01/29 00:50:57;;;;;;;20.65;7.88;;;;;;;8.17;100.00;102746.31;5080623;28;20050;-67
2022/01/29 00:53:22;;;;;;;19.25;8.45;;;;;;;8.33;100.00;102752.28;5083157;28;20081;-69
2022/01/29 00:55:48;;;;;;;26.00;8.98;;;;;;;8.22;100.00;102740.19;5082712;28;20035;-69
2022/01/29 00:58:19;;;;;;;16.75;9.55;;;;;;;8.21;100.00;102735.78;5079584;28;20415;-69
2022/01/29 01:00:46;;;;;;;25.52;9.98;;;;;;;8.12;100.00;102718.81;5060734;28;20351;-70
2022/01/29 01:03:12;;;;;;;23.08;10.35;;;;;;;8.35;100.00;102723.69;5087996;28;20024;-69
2022/01/29 01:05:41;;;;;;;25.23;10.18;;;;;;;8.39;100.00;102722.19;5102641;28;20031;-67
2022/01/29 01:08:11;;;;;;;23.33;11.02;;;;;;;8.36;100.00;102716.31;5091486;28;20031;-70
2022/01/29 01:10:36;;;;;;;21.08;11.45;;;;;;;8.40;100.00;102712.09;5080595;28;20123;-69
2022/01/29 01:13:04;;;;;;;27.13;11.52;;;;;;;8.41;100.00;102711.03;5079750;28;21003;-69
2022/01/29 01:15:29;;;;;;;25.35;10.60;;;;;;;8.31;100.00;102703.31;5090532;28;20024;-69
2022/01/29 01:17:56;;;;;;;27.90;11.48;;;;;;;8.40;100.00;102712.94;5097369;28;20429;-68
2022/01/29 01:20:22;;;;;;;29.00;11.68;;;;;;;8.27;100.00;102700.19;5076456;28;20066;-68
2022/01/29 01:22:47;;;;;;;26.65;11.00;;;;;;;8.36;100.00;102700.78;5077150;28;20077;-71
2022/01/29 01:25:13;;;;;;;21.88;11.10;;;;;;;8.48;100.00;102691.88;5058531;28;20404;-69
2022/01/29 01:27:43;;;;;;;25.70;11.73;;;;;;;8.48;100.00;102698.19;5069110;28;20139;-69
2022/01/29 01:30:09;;;;;;;27.80;11.63;;;;;;;8.50;100.00;102700.72;5059248;28;20548;-70
2022/01/29 01:32:35;;;;;;;31.33;12.30;;;;;;;8.43;100.00;102698.88;5082682;28;20043;-71
2022/01/29 01:35:24;;;;;;;33.15;11.75;;;;;;;8.36;100.00;102702.66;5080121;28;20031;-69
2022/01/29 01:37:55;;;;;;;25.08;10.77;;;;;;;8.06;100.00;102703.28;5080264;28;20023;-69
2022/01/29 01:40:22;;;;;;;23.40;10.93;;;;;;;8.24;100.00;102694.34;5082342;28;20028;-71
2022/01/29 01:42:47;;;;;;;28.80;10.50;;;;;;;8.39;100.00;102696.75;5082840;28;20027;-69
2022/01/29 01:45:13;;;;;;;24.92;10.77;;;;;;;8.39;100.00;102685.81;5078564;28;20363;-69
2022/01/29 01:47:39;;;;;;;28.67;10.55;;;;;;;8.52;100.00;102682.19;5091796;28;20042;-69
2022/01/29 01:50:06;;;;;;;35.55;10.57;;;;;;;8.41;100.00;102665.44;5084559;28;20475;-70
2022/01/29 01:52:32;;;;;;;28.63;9.98;;;;;;;8.50;100.00;102676.94;5084384;28;20115;-69
2022/01/29 01:54:58;;;;;;;30.20;10.48;;;;;;;8.51;100.00;102667.69;5096134;28;20142;-71
2022/01/29 01:57:24;;;;;;;26.80;9.68;;;;;;;8.34;100.00;102664.63;5098627;28;20397;-68
2022/01/29 01:59:49;;;;;;;24.70;9.50;;;;;;;8.43;100.00;102649.66;5079401;28;20082;-68
2022/01/29 02:02:14;;;;;;;24.33;9.88;;;;;;;8.40;100.00;102646.50;5100540;28;20449;-69
2022/01/29 02:04:40;;;;;;;27.52;9.73;;;;;;;8.38;100.00;102652.19;5106951;28;20042;-69
2022/01/29 02:07:05;;;;;;;27.80;9.43;;;;;;;8.60;100.00;102657.28;5104202;28;20076;-69
2022/01/29 02:09:32;;;;;;;27.10;8.88;;;;;;;8.57;100.00;102642.16;5107489;28;20051;-69
2022/01/29 02:12:01;;;;;;;26.10;8.57;;;;;;;8.48;100.00;102643.53;5096285;28;20044;-71
2022/01/29 02:14:30;;;;;;;22.92;9.10;;;;;;;8.60;100.00;102638.16;5079910;28;20043;-72
2022/01/29 02:16:56;;;;;;;26.10;8.45;;;;;;;8.46;100.00;102632.81;5099930;28;20110;-70
2022/01/29 02:19:22;;;;;;;30.25;8.50;;;;;;;8.71;100.00;102629.22;5095165;28;20470;-70
2022/01/29 02:21:48;;;;;;;23.20;8.82;;;;;;;8.60;100.00;102628.06;5081672;28;20028;-69
2022/01/29 02:24:13;;;;;;;23.48;8.25;;;;;;;8.58;100.00;102623.88;5096820;28;20035;-68
2022/01/29 02:26:39;;;;;;;25.70;8.10;;;;;;;8.79;100.00;102626.19;5105326;28;20114;-70
2022/01/29 02:29:05;;;;;;;29.38;8.50;;;;;;;8.53;100.00;102619.09;5098690;28;20462;-69
2022/01/29 02:31:30;;;;;;;24.33;7.90;;;;;;;8.65;100.00;102620.00;5089616;28;20046;-68
2022/01/29 02:33:56;;;;;;;26.10;7.93;;;;;;;8.58;100.00;102618.41;5092003;28;20453;-70
2022/01/29 02:36:22;;;;;;;29.80;9.00;;;;;;;8.67;100.00;102616.22;5103522;27;20043;-69
2022/01/29 02:38:48;;;;;;;26.35;8.27;;;;;;;8.69;100.00;102604.00;5085666;28;20035;-68
2022/01/29 02:41:14;;;;;;;20.85;8.18;;;;;;;8.70;100.00;102604.84;5104157;28;20118;-69
2022/01/29 02:43:47;;;;;;;22.50;8.40;;;;;;;8.82;100.00;102592.91;5100258;28;20304;-69
2022/01/29 02:47:15;;;;;;;20.65;7.97;;;;;;;8.64;100.00;102593.75;5104793;28;20031;-70
2022/01/29 02:49:00;;;;;;;25.70;7.88;;;;;;;8.73;100.00;102594.28;5089610;28;20043;-69
2022/01/29 02:51:26;;;;;;;26.92;8.20;;;;;;;8.72;100.00;102580.81;5103467;28;20054;-68
2022/01/29 02:53:51;;;;;;;20.80;7.35;;;;;;;8.57;100.00;102576.56;5084009;28;20032;-71
2022/01/29 02:56:17;;;;;;;21.58;7.82;;;;;;;8.62;100.00;102587.66;5087409;28;20445;-69
2022/01/29 02:58:43;;;;;;;27.67;7.88;;;;;;;8.67;100.00;102584.22;5097790;28;20070;-69
2022/01/29 03:01:09;;;;;;;30.25;7.80;;;;;;;8.67;100.00;102577.94;5100802;28;20540;-68
2022/01/29 03:03:34;;;;;;;21.15;7.40;;;;;;;8.74;100.00;102568.59;5103200;28;20069;-69
2022/01/29 03:06:08;;;;;;;19.60;7.78;;;;;;;8.87;100.00;102583.19;5090920;28;20147;-68
2022/01/29 03:08:33;;;;;;;26.48;7.90;;;;;;;8.76;100.00;102565.66;5065439;28;20028;-70
2022/01/29 03:10:59;;;;;;;21.05;7.40;;;;;;;8.83;100.00;102559.00;5083694;28;21070;-69
2022/01/29 03:13:24;;;;;;;20.80;7.30;;;;;;;8.86;100.00;102573.31;5082702;28;20055;-68
2022/01/29 03:15:51;;;;;;;26.50;7.85;;;;;;;8.77;100.00;102567.28;5080902;28;20032;-69
2022/01/29 03:18:16;;;;;;;22.20;7.10;;;;;;;8.74;100.00;102557.66;5082732;28;20135;-68
2022/01/29 03:20:42;;;;;;;25.30;7.63;;;;;;;8.81;100.00;102543.91;5098265;28;20509;-69
2022/01/29 03:23:08;;;;;;;21.02;6.63;;;;;;;8.80;100.00;102544.97;5099924;28;20031;-68
2022/01/29 03:25:34;;;;;;;25.90;7.82;;;;;;;8.74;100.00;102543.13;5104378;28;20032;-69
2022/01/29 03:27:59;;;;;;;18.67;7.45;;;;;;;8.98;100.00;102544.13;5101999;28;20092;-68
2022/01/29 03:30:25;;;;;;;22.05;7.53;;;;;;;8.80;100.00;102545.78;5082455;28;20135;-68
2022/01/29 03:32:51;;;;;;;26.50;7.63;;;;;;;9.15;100.00;102538.84;5104353;28;20077;-70
2022/01/29 03:35:17;;;;;;;19.20;7.03;;;;;;;8.90;100.00;102539.78;5097133;28;20020;-68
2022/01/29 03:37:42;;;;;;;19.65;6.93;;;;;;;8.89;100.00;102537.31;5082105;28;20082;-68
2022/01/29 03:40:08;;;;;;;25.42;7.32;;;;;;;8.79;100.00;102533.19;5081737;28;20056;-70
2022/01/29 03:42:42;;;;;;;18.90;6.95;;;;;;;8.87;100.00;102533.94;5090176;28;20111;-69
2022/01/29 03:45:09;;;;;;;20.30;6.95;;;;;;;8.75;100.00;102528.41;5098084;27;20024;-68
2022/01/29 03:47:35;;;;;;;20.17;6.97;;;;;;;9.10;100.00;102528.63;5083896;28;20036;-68
2022/01/29 03:50:00;;;;;;;24.25;7.30;;;;;;;8.89;100.00;102518.16;5064578;28;20048;-69
2022/01/29 03:52:26;;;;;;;19.67;6.90;;;;;;;9.00;100.00;102520.09;5082693;28;20043;-69
2022/01/29 03:54:53;;;;;;;21.73;7.18;;;;;;;9.04;100.00;102521.31;5085361;28;20452;-69
2022/01/29 03:57:19;;;;;;;18.48;6.20;;;;;;;8.92;100.00;102504.00;5065445;28;20052;-68
2022/01/29 03:59:44;;;;;;;22.77;6.47;;;;;;;8.94;100.00;102521.03;5077525;28;20038;-69
2022/01/29 04:02:10;;;;;;;23.15;6.82;;;;;;;8.79;100.00;102505.84;5081440;28;20199;-69
2022/01/29 04:04:35;;;;;;;22.27;6.80;;;;;;;8.81;100.00;102500.16;5081435;28;20030;-69
2022/01/29 04:07:06;;;;;;;20.52;7.20;;;;;;;8.92;100.00;102510.31;5081001;28;20036;-70
2022/01/29 04:09:33;;;;;;;24.80;6.93;;;;;;;8.87;100.00;102503.84;5066180;28;20140;-68
2022/01/29 04:11:58;;;;;;;19.63;5.88;;;;;;;8.82;100.00;102504.53;5046128;28;20113;-68
2022/01/29 04:14:24;;;;;;;25.70;6.55;;;;;;;8.87;100.00;102504.72;5077658;28;20103;-69
2022/01/29 04:16:49;;;;;;;18.50;5.93;;;;;;;8.90;100.00;102501.50;5087535;28;20721;-68
2022/01/29 04:19:14;;;;;;;20.60;6.55;;;;;;;8.83;100.00;102501.59;5090874;28;20112;-69
2022/01/29 04:21:41;;;;;;;20.15;6.60;;;;;;;8.76;100.00;102506.31;5080965;28;20469;-67
2022/01/29 04:24:07;;;;;;;21.40;6.30;;;;;;;8.79;100.00;102505.03;5081781;28;20024;-68
2022/01/29 04:26:34;;;;;;;23.00;5.93;;;;;;;9.00;100.00;102484.53;5084238;28;20096;-68
2022/01/29 04:29:08;;;;;;;21.05;6.43;;;;;;;8.91;100.00;102484.03;5074998;28;20062;-69
2022/01/29 04:34:26;;;;;;;20.50;6.22;;;;;;;8.81;100.00;102486.47;5073091;28;20040;-71
2022/01/29 04:36:51;;;;;;;26.02;6.55;;;;;;;8.83;100.00;102482.44;5081511;28;20043;-69
2022/01/29 04:39:17;;;;;;;25.90;6.78;;;;;;;9.06;100.00;102475.41;5081667;28;20112;-69
2022/01/29 04:41:42;;;;;;;22.88;6.60;;;;;;;8.95;100.00;102477.03;5084008;28;20032;-67
2022/01/29 04:44:08;;;;;;;20.50;6.30;;;;;;;8.93;100.00;102478.31;5074770;28;20078;-68
2022/01/29 04:46:33;;;;;;;21.17;6.13;;;;;;;8.93;100.00;102462.75;5095585;28;20032;-67
2022/01/29 04:49:00;;;;;;;17.90;5.25;;;;;;;8.86;100.00;102477.59;5086048;28;20134;-70
2022/01/29 04:51:25;;;;;;;17.73;5.93;;;;;;;8.89;100.00;102471.66;5083955;28;20079;-68
2022/01/29 04:53:51;;;;;;;17.73;6.03;;;;;;;9.03;100.00;102473.13;5083681;28;20024;-69
2022/01/29 04:56:16;;;;;;;22.55;6.18;;;;;;;9.11;100.00;102461.84;5081578;28;20456;-69
2022/01/29 04:58:41;;;;;;;18.75;6.10;;;;;;;9.09;100.00;102461.25;5084050;28;20484;-68
2022/01/29 05:01:07;;;;;;;17.67;5.65;;;;;;;9.14;100.00;102455.94;5102005;28;20119;-68
2022/01/29 05:03:33;;;;;;;21.23;5.65;;;;;;;9.18;100.00;102459.88;5086779;27;20350;-68
2022/01/29 05:06:09;;;;;;;18.90;5.68;;;;;;;9.04;100.00;102458.41;5086919;28;20024;-69
2022/01/29 05:08:35;;;;;;;20.80;5.53;;;;;;;9.23;100.00;102459.19;5102659;28;20069;-68
2022/01/29 05:11:01;;;;;;;19.27;5.47;;;;;;;9.25;100.00;102451.56;5095644;28;20031;-69
2022/01/29 05:13:30;;;;;;;18.45;5.15;;;;;;;9.10;100.00;102457.47;5099819;28;20020;-68
2022/01/29 05:27:04;;;;;;;22.05;5.72;;;;;;;9.22;100.00;102456.69;5103930;28;20171;-69
2022/01/29 05:29:31;;;;;;;16.92;6.10;;;;;;;9.12;100.00;102465.44;5098682;28;20072;-67
2022/01/29 05:32:02;;;;;;;17.13;5.60;;;;;;;9.19;100.00;102460.72;5099561;28;20039;-68
2022/01/29 05:34:28;;;;;;;25.15;5.60;;;;;;;9.17;100.00;102450.00;5080921;28;20535;-67
2022/01/29 05:36:54;;;;;;;17.23;5.50;;;;;;;9.10;100.00;102459.34;5083623;28;20020;-68
2022/01/29 05:39:20;;;;;;;19.88;5.38;;;;;;;9.28;100.00;102459.31;5080623;28;20069;-68
2022/01/29 05:41:46;;;;;;;14.95;5.20;;;;;;;9.13;100.00;102462.47;5065669;28;20059;-67
2022/01/29 05:44:11;;;;;;;24.95;5.78;;;;;;;9.10;100.00;102454.75;5076041;28;20059;-68
2022/01/29 05:46:39;;;;;;;19.88;5.28;;;;;;;9.23;100.00;102450.97;5087055;28;20036;-67
2022/01/29 05:49:05;;;;;;;24.63;5.70;;;;;;;9.33;100.00;102458.59;5101527;28;20071;-69
2022/01/29 05:51:31;;;;;;;16.08;5.18;;;;;;;9.33;100.00;102461.31;5101675;28;20098;-69
2022/01/29 05:54:01;;;;;;;17.52;5.20;;;;;;;9.25;100.00;102457.03;5101592;28;20028;-68
2022/01/29 05:56:28;;;;;;;20.35;5.13;;;;;;;9.31;100.00;102452.53;5084764;28;20035;-69
2022/01/29 05:58:53;;;;;;;16.23;4.90;;;;;;;9.31;100.00;102449.78;5085085;28;20275;-69
2022/01/29 06:01:20;;;;;;;17.92;5.80;;;;;;;9.31;100.00;102447.91;5082635;28;20291;-68
2022/01/29 06:03:45;;;;;;;17.73;5.60;;;;;;;9.49;100.00;102451.59;5080112;28;20055;-67
2022/01/29 06:06:11;;;;;;;19.00;4.97;;;;;;;9.35;100.00;102440.06;5080400;28;20067;-69
2022/01/29 06:08:36;;;;;;;17.13;5.05;;;;;;;9.36;100.00;102438.97;5082984;28;20115;-68
2022/01/29 06:11:04;;;;;;;17.98;5.63;;;;;;;9.27;100.00;102421.22;5081662;28;20028;-68
2022/01/29 06:13:31;;;;;;;17.92;5.40;;;;;;;9.30;100.00;102418.84;5076635;28;20028;-68
2022/01/29 06:15:57;;;;;;;19.00;5.63;;;;;;;9.44;100.00;102418.63;5080970;28;20106;-69
2022/01/29 06:18:23;;;;;;;16.42;5.60;;;;;;;9.32;100.00;102415.88;5079334;28;20062;-70
2022/01/29 06:20:51;;;;;;;14.63;5.32;;;;;;;9.38;100.00;102412.22;5083127;28;20133;-68
2022/01/29 06:23:21;;;;;;;16.23;5.15;;;;;;;9.34;100.00;102411.00;5060853;28;20043;-69
2022/01/29 06:25:47;;;;;;;18.83;5.25;;;;;;;9.42;100.00;102410.66;5082219;28;20135;-67
2022/01/29 06:28:13;;;;;;;16.90;4.60;;;;;;;9.43;100.00;102403.25;5080825;28;20051;-68
2022/01/29 06:30:39;;;;;;;18.63;5.32;;;;;;;9.42;100.00;102405.19;5079711;28;20036;-68
2022/01/29 06:33:10;;;;;;;16.23;5.15;;;;;;;9.55;100.00;102402.22;5081749;28;20031;-69
2022/01/29 06:35:37;;;;;;;13.98;4.50;;;;;;;9.62;100.00;102409.50;5082901;28;20024;-67
2022/01/29 06:38:07;;;;;;;16.00;5.03;;;;;;;9.61;100.00;102402.34;5083466;28;20066;-67
2022/01/29 06:40:34;;;;;;;16.77;4.45;;;;;;;9.57;100.00;102391.88;5084052;28;20028;-67
2022/01/29 06:43:01;;;;;;;17.23;4.57;;;;;;;9.61;100.00;102391.38;5089917;28;20030;-68
2022/01/29 06:45:27;;;;;;;20.55;4.80;;;;;;;9.50;100.00;102382.94;5082728;28;20559;-68
2022/01/29 06:47:52;;;;;;;18.80;4.50;;;;;;;9.49;100.00;102389.47;5087893;28;20438;-69
2022/01/29 06:50:18;;;;;;;17.05;3.92;;;;;;;9.60;100.00;102379.59;5085387;28;20063;-67
2022/01/29 06:52:43;;;;;;;15.63;4.50;;;;;;;9.61;100.00;102388.63;5085334;28;20056;-68
2022/01/29 06:55:09;;;;;;;14.68;4.00;;;;;;;9.53;100.00;102378.91;5086761;28;20020;-69
2022/01/29 06:57:35;;;;;;;15.40;4.28;;;;;;;9.55;100.00;102388.53;5070813;28;20035;-69
2022/01/29 07:00:00;;;;;;;14.50;3.92;;;;;;;9.67;100.00;102382.22;5083312;28;20039;-68
2022/01/29 07:02:26;;;;;;;16.38;4.10;;;;;;;9.62;100.00;102374.72;5083939;28;20100;-69
2022/01/29 07:04:51;;;;;;;14.45;4.05;;;;;;;9.64;100.00;102375.34;5067332;28;20024;-69
2022/01/29 07:07:17;;;;;;;20.42;4.82;;;;;;;9.70;100.00;102362.56;5079329;28;20042;-68
2022/01/29 07:09:42;;;;;;;15.63;3.97;;;;;;;9.49;100.00;102375.78;5082684;28;20063;-68
2022/01/29 07:12:10;;;;;;;13.80;3.55;;;;;;;9.75;100.00;102369.00;5084213;28;20032;-68
2022/01/29 07:14:39;;;;;;;11.50;3.45;;;;;;;9.92;100.00;102371.03;5080347;28;20113;-68
2022/01/29 07:17:11;;;;;;;16.38;4.03;;;;;;;9.65;100.00;102376.97;5085701;28;20123;-67
2022/01/29 07:19:37;;;;;;;15.95;3.58;;;;;;;9.80;100.00;102383.88;5065403;28;20339;-69
2022/01/29 07:22:03;;;;;;;14.05;3.67;;;;;;;9.83;100.00;102378.75;5081680;28;20036;-69
2022/01/29 07:24:29;;;;;;;7.70;3.30;;;;;;;9.90;100.00;102365.78;5064622;28;20302;-71
2022/01/29 07:26:54;;;;;;;19.88;3.55;;;;;;;9.95;100.00;102367.78;5087810;28;20050;-68
2022/01/29 07:29:19;;;;;;;16.38;3.70;;;;;;;9.98;100.00;102364.56;5098884;28;20046;-68
2022/01/29 07:31:45;;;;;;;16.17;3.50;;;;;;;9.96;100.00;102365.91;5106458;28;20027;-68
2022/01/29 07:34:11;;;;;;;19.63;3.97;;;;;;;9.82;100.00;102357.09;5104539;28;20043;-67
2022/01/29 07:36:37;;;;;;;16.00;3.35;;;;;;;9.79;100.00;102352.94;5082360;28;20084;-70
2022/01/29 07:39:02;;;;;;;17.65;3.75;;;;;;;9.86;100.00;102348.16;5103161;28;20043;-67
2022/01/29 07:41:28;;;;;;;14.20;3.63;;;;;;;9.82;100.00;102357.94;5102540;28;20028;-68
2022/01/29 07:43:53;;;;;;;18.20;3.45;;;;;;;9.79;100.00;102350.19;5101727;28;20084;-68
2022/01/29 07:46:19;;;;;;;12.75;3.78;;;;;;;9.90;100.00;102346.59;5101295;28;20024;-68
2022/01/29 07:48:44;;;;;;;14.15;3.55;;;;;;;9.84;100.00;102350.31;5102645;28;20050;-68
2022/01/29 07:51:10;;;;;;;15.32;3.38;;;;;;;10.00;100.00;102339.66;5095634;28;20416;-69
2022/01/29 07:53:35;;;;;;;19.25;4.18;;;;;;;10.08;100.00;102342.88;5063608;28;20036;-68
2022/01/29 07:56:01;;;;;;;14.00;3.45;;;;;;;9.99;100.00;102327.88;5082975;28;20020;-68
2022/01/29 07:58:33;;;;;;;17.38;3.17;;;;;;;9.86;100.00;102334.44;5092374;28;20035;-68
2022/01/29 08:00:58;;;;;;;14.25;3.35;;;;;;;9.78;100.00;102337.56;5049714;28;20034;-69
2022/01/29 08:03:24;;;;;;;12.90;3.20;;;;;;;10.01;100.00;102335.84;5080288;28;20032;-68
2022/01/29 08:05:49;;;;;;;12.88;3.17;;;;;;;9.98;100.00;102326.19;5086175;28;20395;-68
2022/01/29 08:08:18;;;;;;;20.40;3.65;;;;;;;9.98;100.00;102339.06;5100785;28;20500;-68
2022/01/29 08:10:44;;;;;;;16.45;3.47;;;;;;;10.12;100.00;102321.28;5086900;28;20032;-69
2022/01/29 08:13:11;;;;;;;19.40;3.90;;;;;;;9.84;100.00;102324.78;5082311;28;20043;-68
2022/01/29 08:15:37;;;;;;;17.20;3.28;;;;;;;9.88;100.00;102323.25;5062876;28;20112;-68
2022/01/29 08:18:05;;;;;;;13.30;3.20;;;;;;;9.82;100.00;102322.31;5103237;28;20418;-69
2022/01/29 08:20:32;;;;;;;16.20;3.05;;;;;;;9.97;100.00;102337.41;5101045;28;20039;-68
2022/01/29 08:22:57;;;;;;;14.65;3.45;;;;;;;9.96;100.00;102322.88;5085043;28;20125;-68
2022/01/29 08:25:23;;;;;;;14.68;3.17;;;;;;;10.03;100.00;102328.22;5081133;28;20474;-69
2022/01/29 08:27:48;;;;;;;14.75;2.92;;;;;;;10.07;100.00;102319.28;5082738;28;20039;-69
2022/01/29 08:30:15;;;;;;;19.27;3.65;;;;;;;9.92;100.00;102321.72;5079243;28;20165;-69
2022/01/29 08:32:42;;;;;;;11.93;3.05;;;;;;;9.93;100.00;102321.44;5068158;28;20042;-68
2022/01/29 08:35:14;;;;;;;15.25;3.60;;;;;;;9.86;100.00;102312.53;5102166;28;20440;-67
2022/01/29 08:37:40;;;;;;;16.83;3.80;;;;;;;9.92;100.00;102321.72;5066951;28;20367;-68
2022/01/29 08:40:06;;;;;;;14.57;3.30;;;;;;;10.04;100.00;102313.47;5082717;28;20028;-68
2022/01/29 08:42:32;;;;;;;10.63;3.28;;;;;;;9.97;100.00;102304.53;5081901;28;20048;-68
2022/01/29 08:44:57;;;;;;;20.13;3.78;;;;;;;9.90;100.00;102308.25;5077400;28;20059;-68
2022/01/29 08:47:22;;;;;;;17.50;3.40;;;;;;;9.73;100.00;102323.75;5088206;28;20441;-67
2022/01/29 08:49:48;;;;;;;17.25;3.40;;;;;;;9.74;100.00;102298.88;5068787;28;20052;-68
2022/01/29 08:52:13;;;;;;;9.50;2.83;;;;;;;9.72;100.00;102289.22;5088491;28;20039;-68
2022/01/29 08:54:39;;;;;;;18.98;3.70;;;;;;;9.64;100.00;102282.22;5101564;28;20027;-68
2022/01/29 08:57:05;;;;;;;13.63;3.70;;;;;;;9.91;100.00;102298.13;5104532;28;20500;-69
2022/01/29 08:59:30;;;;;;;19.60;3.85;;;;;;;9.84;100.00;102280.97;5096534;28;20027;-68
2022/01/29 09:01:56;;;;;;;20.15;4.13;;;;;;;9.95;100.00;102285.59;5104159;28;20426;-68
2022/01/29 09:04:21;;;;;;;17.27;3.80;;;;;;;9.85;100.00;102282.66;5102296;28;20462;-68
2022/01/29 09:06:47;;;;;;;16.00;3.50;;;;;;;9.92;100.00;102283.34;5082031;28;20134;-68
2022/01/29 09:09:12;;;;;;;15.55;3.53;;;;;;;9.88;100.00;102282.16;5088027;28;20040;-68
2022/01/29 09:11:38;;;;;;;21.67;3.67;;;;;;;9.80;100.00;102283.38;5081840;28;20042;-70
2022/01/29 09:14:03;;;;;;;20.27;4.47;;;;;;;9.82;100.00;102283.97;5077996;28;20397;-68
2022/01/29 09:16:29;;;;;;;12.75;3.45;;;;;;;9.96;100.00;102281.78;5080528;28;20039;-68
2022/01/29 09:18:54;;;;;;;16.20;3.28;;;;;;;10.03;100.00;102278.91;5096443;28;20423;-67
2022/01/29 09:21:27;;;;;;;13.48;2.92;;;;;;;9.96;100.00;102280.97;5096227;28;20192;-68
2022/01/29 09:23:55;;;;;;;15.82;3.85;;;;;;;10.00;100.00;102284.88;5102635;28;20046;-68
2022/01/29 09:26:25;;;;;;;21.42;3.72;;;;;;;9.84;100.00;102268.13;5101626;28;20123;-67
2022/01/29 09:28:51;;;;;;;17.92;3.40;;;;;;;9.92;100.00;102258.69;5096406;28;20086;-69
2022/01/29 09:31:16;;;;;;;17.30;3.55;;;;;;;10.03;100.00;102270.69;5102116;28;20061;-69
2022/01/29 09:33:42;;;;;;;16.40;3.60;;;;;;;10.40;100.00;102242.91;5096785;28;20270;-69
2022/01/29 09:36:07;;;;;;;19.40;3.60;;;;;;;10.40;100.00;102241.00;5100092;28;20076;-68
2022/01/29 09:38:34;;;;;;;15.80;3.55;;;;;;;10.48;100.00;102248.00;5100820;28;20051;-68
2022/01/29 09:41:04;;;;;;;15.30;3.15;;;;;;;10.47;100.00;102235.34;5101200;28;20389;-68
2022/01/29 09:43:33;;;;;;;17.45;3.17;;;;;;;10.42;100.00;102236.09;5098549;28;20124;-68
2022/01/29 09:45:59;;;;;;;18.27;3.28;;;;;;;10.64;100.00;102240.84;5096291;28;20031;-69
2022/01/29 09:48:27;;;;;;;17.15;3.50;;;;;;;10.61;100.00;102231.22;5080788;28;20111;-69
2022/01/29 09:50:54;;;;;;;17.50;3.00;;;;;;;10.50;100.00;102229.38;5080424;28;20047;-69
2022/01/29 09:53:21;;;;;;;15.18;3.47;;;;;;;10.53;100.00;102228.06;5062508;28;20452;-68
2022/01/29 09:55:47;;;;;;;15.95;3.00;;;;;;;10.46;100.00;102217.22;5079264;28;20097;-68
2022/01/29 09:58:14;;;;;;;17.40;3.50;;;;;;;10.81;100.00;102227.16;5080535;28;20028;-68
2022/01/29 10:00:40;;;;;;;13.80;3.33;;;;;;;10.92;100.00;102247.34;5039724;28;20402;-68
2022/01/29 10:03:12;;;;;;;13.30;3.35;;;;;;;11.08;100.00;102246.50;5081507;28;20410;-67
2022/01/29 10:05:51;;;;;;;15.05;3.38;;;;;;;11.02;100.00;102244.78;5079038;28;20078;-69
2022/01/29 10:08:19;;;;;;;10.82;2.55;;;;;;;10.96;100.00;102234.78;5076784;28;20039;-68
2022/01/29 10:10:47;;;;;;;12.80;2.80;;;;;;;10.85;100.00;102242.88;5081487;28;20544;-69
2022/01/29 10:13:37;;;;;;;15.85;2.72;;;;;;;11.20;100.00;102249.16;5094159;28;20038;-69
2022/01/29 10:16:18;;;;;;;10.02;2.90;;;;;;;11.10;100.00;102233.38;5104052;28;20077;-68
2022/01/29 10:18:48;;;;;;;14.65;3.30;;;;;;;11.11;100.00;102246.00;5102999;28;20062;-69
2022/01/29 10:21:20;;;;;;;13.02;2.58;;;;;;;11.17;100.00;102238.69;5104155;27;20501;-69
2022/01/29 10:23:46;;;;;;;15.52;3.17;;;;;;;11.00;100.00;102231.31;5100951;28;20427;-70
2022/01/29 10:26:29;;;;;;;12.70;2.65;;;;;;;11.12;100.00;102219.41;5105253;28;20535;-69
2022/01/29 10:28:56;;;;;;;11.50;2.65;;;;;;;11.18;100.00;102218.38;5100979;28;20333;-69
2022/01/29 10:31:22;;;;;;;10.88;2.50;;;;;;;11.41;100.00;102206.31;5102142;28;20046;-68
2022/01/29 10:33:47;;;;;;;10.65;2.15;;;;;;;11.44;100.00;102205.81;5082145;28;20032;-67
2022/01/29 10:36:17;;;;;;;18.13;3.25;;;;;;;11.21;100.00;102215.97;5082575;28;20461;-69
2022/01/29 10:38:57;;;;;;;10.88;2.92;;;;;;;11.58;100.00;102212.59;5085580;28;20401;-69
2022/01/29 10:41:28;;;;;;;14.63;3.33;;;;;;;11.47;100.00;102199.00;5105259;28;20027;-67
2022/01/29 10:44:11;;;;;;;9.05;2.13;;;;;;;11.30;100.00;102196.31;5082647;28;20185;-69
2022/01/29 10:46:40;;;;;;;12.07;3.42;;;;;;;10.96;100.00;102210.91;5103347;28;20024;-68
2022/01/29 10:49:06;;;;;;;10.82;2.88;;;;;;;10.93;100.00;102200.44;5103585;28;20134;-68
2022/01/29 10:51:33;;;;;;;14.50;2.95;;;;;;;11.05;100.00;102222.28;5095406;28;20470;-69
2022/01/29 10:54:22;;;;;;;14.63;3.05;;;;;;;10.90;100.00;102184.47;5091380;28;20020;-68
2022/01/29 10:56:50;;;;;;;16.08;2.72;;;;;;;10.85;100.00;102167.94;5093747;28;20140;-68
2022/01/29 10:59:15;;;;;;;13.30;3.10;;;;;;;10.85;100.00;102159.72;5100364;28;20027;-69
2022/01/29 11:01:41;;;;;;;15.35;3.22;;;;;;;11.00;100.00;102161.84;5102446;28;20028;-68
2022/01/29 11:04:06;;;;;;;11.45;2.90;;;;;;;10.85;100.00;102167.94;5106028;28;20457;-67
2022/01/29 11:06:35;;;;;;;13.68;2.55;;;;;;;10.51;100.00;102162.50;5083440;28;20087;-69
2022/01/29 11:09:01;;;;;;;12.60;3.10;;;;;;;10.84;100.00;102171.78;5105147;28;20353;-69
2022/01/29 11:11:28;;;;;;;12.85;3.10;;;;;;;10.85;100.00;102165.19;5106263;28;20032;-67
2022/01/29 11:13:54;;;;;;;12.48;3.33;;;;;;;10.99;100.00;102174.75;5073861;28;20427;-68
2022/01/29 11:16:22;;;;;;;14.75;3.38;;;;;;;10.91;100.00;102153.22;5107413;28;20384;-69
2022/01/29 11:18:47;;;;;;;10.70;2.67;;;;;;;11.00;100.00;102154.47;5104753;28;20027;-68
2022/01/29 11:21:13;;;;;;;16.20;3.30;;;;;;;10.77;100.00;102133.56;5102273;28;20607;-69
2022/01/29 11:23:40;;;;;;;13.27;3.53;;;;;;;11.09;100.00;102149.38;5104553;28;20036;-69
2022/01/29 11:26:06;;;;;;;14.48;3.00;;;;;;;11.15;100.00;102151.09;5105630;28;20106;-70
2022/01/29 11:28:34;;;;;;;17.20;3.10;;;;;;;10.94;100.00;102141.75;5102663;28;20119;-67